sensor_id;sensor_type;location;lat;lon;timestamp;P1;durP1;ratioP1;P2;durP2;ratioP2
33138;SDS011;19501;50.948;5.316;2023-11-25T00:01:40;20.10;;;2.90;;
33138;SDS011;19501;50.948;5.316;2023-11-25T00:04:06;20.98;;;2.88;;
33138;SDS011;19501;50.948;5.316;2023-11-25T00:06:32;22.55;;;3.13;;
33138;SDS011;19501;50.948;5.316;2023-11-25T00:08:57;17.73;;;2.80;;
33138;SDS011;19501;50.948;5.316;2023-11-25T00:11:23;26.55;;;3.50;;
33138;SDS011;19501;50.948;5.316;2023-11-25T00:13:49;15.15;;;3.42;;
33138;SDS011;19501;50.948;5.316;2023-11-25T00:16:14;21.38;;;3.40;;
33138;SDS011;19501;50.948;5.316;2023-11-25T00:18:44;19.13;;;3.40;;
33138;SDS011;19501;50.948;5.316;2023-11-25T00:21:10;17.02;;;3.20;;
33138;SDS011;19501;50.948;5.316;2023-11-25T00:23:36;17.15;;;3.15;;
33138;SDS011;19501;50.948;5.316;2023-11-25T00:26:02;19.90;;;3.17;;
33138;SDS011;19501;50.948;5.316;2023-11-25T00:28:28;18.05;;;3.13;;
33138;SDS011;19501;50.948;5.316;2023-11-25T00:30:54;17.98;;;3.00;;
33138;SDS011;19501;50.948;5.316;2023-11-25T00:33:21;14.18;;;2.95;;
33138;SDS011;19501;50.948;5.316;2023-11-25T00:35:46;22.05;;;3.75;;
33138;SDS011;19501;50.948;5.316;2023-11-25T00:38:13;16.73;;;3.25;;
33138;SDS011;19501;50.948;5.316;2023-11-25T00:40:38;17.38;;;3.05;;
33138;SDS011;19501;50.948;5.316;2023-11-25T00:43:05;18.38;;;2.97;;
33138;SDS011;19501;50.948;5.316;2023-11-25T00:45:31;18.70;;;3.15;;
33138;SDS011;19501;50.948;5.316;2023-11-25T00:47:57;16.63;;;3.20;;
33138;SDS011;19501;50.948;5.316;2023-11-25T00:50:23;15.73;;;3.40;;
33138;SDS011;19501;50.948;5.316;2023-11-25T00:52:50;17.30;;;3.25;;
33138;SDS011;19501;50.948;5.316;2023-11-25T00:55:15;20.70;;;3.25;;
33138;SDS011;19501;50.948;5.316;2023-11-25T00:57:41;19.40;;;4.00;;
33138;SDS011;19501;50.948;5.316;2023-11-25T01:00:09;20.85;;;3.55;;
33138;SDS011;19501;50.948;5.316;2023-11-25T01:02:41;16.52;;;3.25;;
33138;SDS011;19501;50.948;5.316;2023-11-25T01:05:08;20.30;;;3.42;;
33138;SDS011;19501;50.948;5.316;2023-11-25T01:07:35;14.38;;;3.20;;
33138;SDS011;19501;50.948;5.316;2023-11-25T01:10:00;16.50;;;3.67;;
33138;SDS011;19501;50.948;5.316;2023-11-25T01:12:26;15.88;;;3.42;;
33138;SDS011;19501;50.948;5.316;2023-11-25T01:14:51;15.07;;;3.03;;
33138;SDS011;19501;50.948;5.316;2023-11-25T01:17:17;15.50;;;2.97;;
33138;SDS011;19501;50.948;5.316;2023-11-25T01:19:43;14.70;;;2.97;;
33138;SDS011;19501;50.948;5.316;2023-11-25T01:22:09;17.20;;;3.15;;
33138;SDS011;19501;50.948;5.316;2023-11-25T01:24:35;18.95;;;3.30;;
33138;SDS011;19501;50.948;5.316;2023-11-25T01:27:01;14.32;;;2.78;;
33138;SDS011;19501;50.948;5.316;2023-11-25T01:29:27;15.75;;;3.03;;
33138;SDS011;19501;50.948;5.316;2023-11-25T01:31:53;14.98;;;2.55;;
33138;SDS011;19501;50.948;5.316;2023-11-25T01:34:19;18.85;;;2.92;;
33138;SDS011;19501;50.948;5.316;2023-11-25T01:36:45;17.23;;;2.80;;
33138;SDS011;19501;50.948;5.316;2023-11-25T01:39:13;14.23;;;3.00;;
33138;SDS011;19501;50.948;5.316;2023-11-25T01:41:39;15.15;;;3.17;;
33138;SDS011;19501;50.948;5.316;2023-11-25T01:44:05;16.13;;;3.05;;
33138;SDS011;19501;50.948;5.316;2023-11-25T01:46:36;18.63;;;3.00;;
33138;SDS011;19501;50.948;5.316;2023-11-25T01:49:05;21.33;;;3.05;;
33138;SDS011;19501;50.948;5.316;2023-11-25T01:51:34;20.80;;;2.92;;
33138;SDS011;19501;50.948;5.316;2023-11-25T01:54:02;22.05;;;3.70;;
33138;SDS011;19501;50.948;5.316;2023-11-25T01:56:30;16.17;;;2.78;;
33138;SDS011;19501;50.948;5.316;2023-11-25T01:58:56;12.55;;;2.78;;
33138;SDS011;19501;50.948;5.316;2023-11-25T02:01:25;21.05;;;2.97;;
33138;SDS011;19501;50.948;5.316;2023-11-25T02:03:51;11.35;;;2.42;;
33138;SDS011;19501;50.948;5.316;2023-11-25T02:06:17;19.33;;;3.17;;
33138;SDS011;19501;50.948;5.316;2023-11-25T02:08:44;14.10;;;2.42;;
33138;SDS011;19501;50.948;5.316;2023-11-25T02:11:14;24.90;;;3.33;;
33138;SDS011;19501;50.948;5.316;2023-11-25T02:13:39;19.88;;;3.20;;
33138;SDS011;19501;50.948;5.316;2023-11-25T02:16:05;14.48;;;2.58;;
33138;SDS011;19501;50.948;5.316;2023-11-25T02:18:31;22.17;;;3.10;;
33138;SDS011;19501;50.948;5.316;2023-11-25T02:20:59;17.98;;;2.63;;
33138;SDS011;19501;50.948;5.316;2023-11-25T02:23:25;13.90;;;2.70;;
33138;SDS011;19501;50.948;5.316;2023-11-25T02:25:53;11.52;;;2.38;;
33138;SDS011;19501;50.948;5.316;2023-11-25T02:28:19;14.30;;;2.55;;
33138;SDS011;19501;50.948;5.316;2023-11-25T02:30:46;10.45;;;2.50;;
33138;SDS011;19501;50.948;5.316;2023-11-25T02:33:13;14.80;;;2.13;;
33138;SDS011;19501;50.948;5.316;2023-11-25T02:35:44;18.55;;;2.97;;
33138;SDS011;19501;50.948;5.316;2023-11-25T02:38:13;22.92;;;2.75;;
33138;SDS011;19501;50.948;5.316;2023-11-25T02:40:42;14.95;;;2.28;;
33138;SDS011;19501;50.948;5.316;2023-11-25T02:43:11;15.52;;;2.47;;
33138;SDS011;19501;50.948;5.316;2023-11-25T02:45:38;24.38;;;2.88;;
33138;SDS011;19501;50.948;5.316;2023-11-25T02:48:05;13.73;;;2.47;;
33138;SDS011;19501;50.948;5.316;2023-11-25T02:50:31;15.55;;;2.45;;
33138;SDS011;19501;50.948;5.316;2023-11-25T02:52:58;15.68;;;2.85;;
33138;SDS011;19501;50.948;5.316;2023-11-25T02:55:24;11.45;;;2.55;;
33138;SDS011;19501;50.948;5.316;2023-11-25T02:57:51;15.07;;;2.80;;
33138;SDS011;19501;50.948;5.316;2023-11-25T03:00:17;16.05;;;2.78;;
33138;SDS011;19501;50.948;5.316;2023-11-25T03:02:53;25.50;;;3.15;;
33138;SDS011;19501;50.948;5.316;2023-11-25T03:05:28;14.75;;;2.35;;
33138;SDS011;19501;50.948;5.316;2023-11-25T03:07:56;14.40;;;2.80;;
33138;SDS011;19501;50.948;5.316;2023-11-25T03:10:23;16.23;;;2.97;;
33138;SDS011;19501;50.948;5.316;2023-11-25T03:12:48;19.15;;;2.88;;
33138;SDS011;19501;50.948;5.316;2023-11-25T03:15:15;20.63;;;2.95;;
33138;SDS011;19501;50.948;5.316;2023-11-25T03:17:40;13.55;;;2.50;;
33138;SDS011;19501;50.948;5.316;2023-11-25T03:20:07;18.70;;;2.65;;
33138;SDS011;19501;50.948;5.316;2023-11-25T03:22:33;12.98;;;2.58;;
33138;SDS011;19501;50.948;5.316;2023-11-25T03:25:00;12.50;;;2.30;;
33138;SDS011;19501;50.948;5.316;2023-11-25T03:27:26;19.90;;;2.85;;
33138;SDS011;19501;50.948;5.316;2023-11-25T03:29:53;15.30;;;2.50;;
33138;SDS011;19501;50.948;5.316;2023-11-25T03:32:19;16.30;;;3.03;;
33138;SDS011;19501;50.948;5.316;2023-11-25T03:34:46;19.80;;;2.88;;
33138;SDS011;19501;50.948;5.316;2023-11-25T03:37:11;20.42;;;3.45;;
33138;SDS011;19501;50.948;5.316;2023-11-25T03:39:37;20.17;;;2.92;;
33138;SDS011;19501;50.948;5.316;2023-11-25T03:42:04;19.88;;;2.70;;
33138;SDS011;19501;50.948;5.316;2023-11-25T03:44:30;18.33;;;2.65;;
33138;SDS011;19501;50.948;5.316;2023-11-25T03:46:56;23.38;;;3.45;;
33138;SDS011;19501;50.948;5.316;2023-11-25T03:49:21;14.77;;;2.35;;
33138;SDS011;19501;50.948;5.316;2023-11-25T03:51:49;27.35;;;3.08;;
33138;SDS011;19501;50.948;5.316;2023-11-25T03:54:15;17.77;;;2.60;;
33138;SDS011;19501;50.948;5.316;2023-11-25T03:56:42;15.88;;;2.92;;
33138;SDS011;19501;50.948;5.316;2023-11-25T03:59:08;15.35;;;3.03;;
33138;SDS011;19501;50.948;5.316;2023-11-25T04:01:34;24.02;;;3.33;;
33138;SDS011;19501;50.948;5.316;2023-11-25T04:04:02;16.73;;;2.80;;
33138;SDS011;19501;50.948;5.316;2023-11-25T04:06:29;16.60;;;2.50;;
33138;SDS011;19501;50.948;5.316;2023-11-25T04:08:55;11.13;;;2.50;;
33138;SDS011;19501;50.948;5.316;2023-11-25T04:11:21;19.80;;;2.63;;
33138;SDS011;19501;50.948;5.316;2023-11-25T04:13:46;20.42;;;2.90;;
33138;SDS011;19501;50.948;5.316;2023-11-25T04:16:12;20.55;;;2.80;;
33138;SDS011;19501;50.948;5.316;2023-11-25T04:18:39;16.20;;;2.88;;
33138;SDS011;19501;50.948;5.316;2023-11-25T04:21:07;15.10;;;2.67;;
33138;SDS011;19501;50.948;5.316;2023-11-25T04:23:33;19.98;;;3.17;;
33138;SDS011;19501;50.948;5.316;2023-11-25T04:26:00;15.63;;;2.53;;
33138;SDS011;19501;50.948;5.316;2023-11-25T04:28:26;13.05;;;2.80;;
33138;SDS011;19501;50.948;5.316;2023-11-25T04:30:53;16.30;;;2.80;;
33138;SDS011;19501;50.948;5.316;2023-11-25T04:33:20;22.35;;;2.92;;
33138;SDS011;19501;50.948;5.316;2023-11-25T04:35:46;8.93;;;2.10;;
33138;SDS011;19501;50.948;5.316;2023-11-25T04:38:12;24.65;;;2.97;;
33138;SDS011;19501;50.948;5.316;2023-11-25T04:40:39;20.80;;;2.70;;
33138;SDS011;19501;50.948;5.316;2023-11-25T04:43:08;14.65;;;2.35;;
33138;SDS011;19501;50.948;5.316;2023-11-25T04:45:37;22.88;;;2.70;;
33138;SDS011;19501;50.948;5.316;2023-11-25T04:48:03;21.05;;;2.97;;
33138;SDS011;19501;50.948;5.316;2023-11-25T04:50:29;20.70;;;2.72;;
33138;SDS011;19501;50.948;5.316;2023-11-25T04:52:54;16.15;;;2.45;;
33138;SDS011;19501;50.948;5.316;2023-11-25T04:55:22;17.42;;;3.17;;
33138;SDS011;19501;50.948;5.316;2023-11-25T04:57:52;17.70;;;2.90;;
33138;SDS011;19501;50.948;5.316;2023-11-25T05:00:18;20.65;;;3.17;;
33138;SDS011;19501;50.948;5.316;2023-11-25T05:02:46;15.02;;;2.95;;
33138;SDS011;19501;50.948;5.316;2023-11-25T05:05:12;16.95;;;2.60;;
33138;SDS011;19501;50.948;5.316;2023-11-25T05:07:38;17.58;;;3.17;;
33138;SDS011;19501;50.948;5.316;2023-11-25T05:10:05;17.58;;;3.10;;
33138;SDS011;19501;50.948;5.316;2023-11-25T05:12:34;22.52;;;2.95;;
33138;SDS011;19501;50.948;5.316;2023-11-25T05:15:01;21.38;;;3.13;;
33138;SDS011;19501;50.948;5.316;2023-11-25T05:17:29;14.82;;;3.08;;
33138;SDS011;19501;50.948;5.316;2023-11-25T05:19:55;19.13;;;2.83;;
33138;SDS011;19501;50.948;5.316;2023-11-25T05:22:20;18.98;;;3.33;;
33138;SDS011;19501;50.948;5.316;2023-11-25T05:24:46;22.05;;;3.05;;
33138;SDS011;19501;50.948;5.316;2023-11-25T05:27:12;24.73;;;3.20;;
33138;SDS011;19501;50.948;5.316;2023-11-25T05:29:39;20.23;;;3.08;;
33138;SDS011;19501;50.948;5.316;2023-11-25T05:32:07;14.40;;;2.72;;
33138;SDS011;19501;50.948;5.316;2023-11-25T05:34:35;10.70;;;2.72;;
33138;SDS011;19501;50.948;5.316;2023-11-25T05:37:01;13.32;;;2.50;;
33138;SDS011;19501;50.948;5.316;2023-11-25T05:39:28;16.67;;;3.08;;
33138;SDS011;19501;50.948;5.316;2023-11-25T05:41:53;15.75;;;3.05;;
33138;SDS011;19501;50.948;5.316;2023-11-25T05:44:19;17.13;;;3.47;;
33138;SDS011;19501;50.948;5.316;2023-11-25T05:46:46;20.85;;;3.63;;
33138;SDS011;19501;50.948;5.316;2023-11-25T05:49:11;18.58;;;3.08;;
33138;SDS011;19501;50.948;5.316;2023-11-25T05:51:38;19.08;;;3.00;;
33138;SDS011;19501;50.948;5.316;2023-11-25T05:54:08;17.52;;;3.28;;
33138;SDS011;19501;50.948;5.316;2023-11-25T05:56:44;26.00;;;3.45;;
33138;SDS011;19501;50.948;5.316;2023-11-25T05:59:13;22.17;;;3.45;;
33138;SDS011;19501;50.948;5.316;2023-11-25T06:01:41;20.95;;;3.65;;
33138;SDS011;19501;50.948;5.316;2023-11-25T06:04:08;16.98;;;3.33;;
33138;SDS011;19501;50.948;5.316;2023-11-25T06:06:35;24.50;;;4.15;;
33138;SDS011;19501;50.948;5.316;2023-11-25T06:09:00;17.77;;;4.07;;
33138;SDS011;19501;50.948;5.316;2023-11-25T06:11:27;26.38;;;4.75;;
33138;SDS011;19501;50.948;5.316;2023-11-25T06:13:58;19.45;;;4.05;;
33138;SDS011;19501;50.948;5.316;2023-11-25T06:16:24;21.92;;;4.00;;
33138;SDS011;19501;50.948;5.316;2023-11-25T06:18:53;13.60;;;3.60;;
33138;SDS011;19501;50.948;5.316;2023-11-25T06:21:19;18.45;;;3.03;;
33138;SDS011;19501;50.948;5.316;2023-11-25T06:23:45;17.92;;;3.50;;
33138;SDS011;19501;50.948;5.316;2023-11-25T06:26:13;24.38;;;3.58;;
33138;SDS011;19501;50.948;5.316;2023-11-25T06:28:40;21.83;;;3.25;;
33138;SDS011;19501;50.948;5.316;2023-11-25T06:31:07;17.15;;;3.30;;
33138;SDS011;19501;50.948;5.316;2023-11-25T06:33:34;18.05;;;4.10;;
33138;SDS011;19501;50.948;5.316;2023-11-25T06:36:00;17.45;;;3.83;;
33138;SDS011;19501;50.948;5.316;2023-11-25T06:38:26;21.65;;;4.32;;
33138;SDS011;19501;50.948;5.316;2023-11-25T06:40:51;30.70;;;4.43;;
33138;SDS011;19501;50.948;5.316;2023-11-25T06:43:17;20.83;;;4.28;;
33138;SDS011;19501;50.948;5.316;2023-11-25T06:45:42;17.92;;;4.18;;
33138;SDS011;19501;50.948;5.316;2023-11-25T06:48:09;20.17;;;3.63;;
33138;SDS011;19501;50.948;5.316;2023-11-25T06:50:39;21.77;;;3.50;;
33138;SDS011;19501;50.948;5.316;2023-11-25T06:53:05;16.45;;;2.95;;
33138;SDS011;19501;50.948;5.316;2023-11-25T06:55:32;24.35;;;3.50;;
33138;SDS011;19501;50.948;5.316;2023-11-25T06:57:57;19.88;;;3.28;;
33138;SDS011;19501;50.948;5.316;2023-11-25T07:00:23;20.27;;;3.45;;
33138;SDS011;19501;50.948;5.316;2023-11-25T07:02:51;22.55;;;3.88;;
33138;SDS011;19501;50.948;5.316;2023-11-25T07:05:17;27.98;;;3.95;;
33138;SDS011;19501;50.948;5.316;2023-11-25T07:07:42;20.80;;;3.83;;
33138;SDS011;19501;50.948;5.316;2023-11-25T07:10:08;18.90;;;4.13;;
33138;SDS011;19501;50.948;5.316;2023-11-25T07:12:39;18.70;;;3.58;;
33138;SDS011;19501;50.948;5.316;2023-11-25T07:15:05;18.30;;;3.60;;
33138;SDS011;19501;50.948;5.316;2023-11-25T07:17:31;21.25;;;3.40;;
33138;SDS011;19501;50.948;5.316;2023-11-25T07:20:01;22.58;;;3.97;;
33138;SDS011;19501;50.948;5.316;2023-11-25T07:22:27;25.25;;;4.00;;
33138;SDS011;19501;50.948;5.316;2023-11-25T07:24:53;18.92;;;3.72;;
33138;SDS011;19501;50.948;5.316;2023-11-25T07:27:20;16.65;;;3.42;;
33138;SDS011;19501;50.948;5.316;2023-11-25T07:29:50;25.75;;;4.05;;
33138;SDS011;19501;50.948;5.316;2023-11-25T07:32:16;23.95;;;4.68;;
33138;SDS011;19501;50.948;5.316;2023-11-25T07:34:42;19.25;;;3.38;;
33138;SDS011;19501;50.948;5.316;2023-11-25T07:37:08;23.85;;;3.95;;
33138;SDS011;19501;50.948;5.316;2023-11-25T07:39:34;21.67;;;4.18;;
33138;SDS011;19501;50.948;5.316;2023-11-25T07:42:00;23.23;;;5.00;;
33138;SDS011;19501;50.948;5.316;2023-11-25T07:44:27;28.65;;;4.55;;
33138;SDS011;19501;50.948;5.316;2023-11-25T07:46:55;16.98;;;3.63;;
33138;SDS011;19501;50.948;5.316;2023-11-25T07:49:22;23.40;;;4.07;;
33138;SDS011;19501;50.948;5.316;2023-11-25T07:51:50;22.63;;;3.95;;
33138;SDS011;19501;50.948;5.316;2023-11-25T07:54:16;22.27;;;5.00;;
33138;SDS011;19501;50.948;5.316;2023-11-25T07:56:43;21.15;;;3.97;;
33138;SDS011;19501;50.948;5.316;2023-11-25T07:59:10;19.25;;;3.97;;
33138;SDS011;19501;50.948;5.316;2023-11-25T08:01:37;22.38;;;3.50;;
33138;SDS011;19501;50.948;5.316;2023-11-25T08:04:03;13.10;;;3.35;;
33138;SDS011;19501;50.948;5.316;2023-11-25T08:06:29;18.50;;;3.75;;
33138;SDS011;19501;50.948;5.316;2023-11-25T08:08:55;16.15;;;3.92;;
33138;SDS011;19501;50.948;5.316;2023-11-25T08:11:21;20.85;;;3.70;;
33138;SDS011;19501;50.948;5.316;2023-11-25T08:13:48;13.50;;;4.00;;
33138;SDS011;19501;50.948;5.316;2023-11-25T08:16:14;21.75;;;3.88;;
33138;SDS011;19501;50.948;5.316;2023-11-25T08:18:40;14.52;;;3.58;;
33138;SDS011;19501;50.948;5.316;2023-11-25T08:21:07;27.73;;;3.72;;
33138;SDS011;19501;50.948;5.316;2023-11-25T08:23:34;15.48;;;3.33;;
33138;SDS011;19501;50.948;5.316;2023-11-25T08:25:59;20.45;;;3.47;;
33138;SDS011;19501;50.948;5.316;2023-11-25T08:28:25;16.75;;;3.20;;
33138;SDS011;19501;50.948;5.316;2023-11-25T08:30:51;17.13;;;2.85;;
33138;SDS011;19501;50.948;5.316;2023-11-25T08:33:16;12.75;;;2.95;;
33138;SDS011;19501;50.948;5.316;2023-11-25T08:35:43;20.67;;;3.95;;
33138;SDS011;19501;50.948;5.316;2023-11-25T08:38:09;14.20;;;3.17;;
33138;SDS011;19501;50.948;5.316;2023-11-25T08:40:35;17.33;;;3.50;;
33138;SDS011;19501;50.948;5.316;2023-11-25T08:43:01;19.13;;;3.40;;
33138;SDS011;19501;50.948;5.316;2023-11-25T08:45:36;14.43;;;3.08;;
33138;SDS011;19501;50.948;5.316;2023-11-25T08:48:03;15.90;;;3.42;;
33138;SDS011;19501;50.948;5.316;2023-11-25T08:50:31;16.67;;;3.67;;
33138;SDS011;19501;50.948;5.316;2023-11-25T08:52:58;20.17;;;4.18;;
33138;SDS011;19501;50.948;5.316;2023-11-25T08:55:27;20.83;;;4.30;;
33138;SDS011;19501;50.948;5.316;2023-11-25T08:57:53;18.77;;;3.63;;
33138;SDS011;19501;50.948;5.316;2023-11-25T09:00:18;16.52;;;3.60;;
33138;SDS011;19501;50.948;5.316;2023-11-25T09:02:45;14.48;;;3.17;;
33138;SDS011;19501;50.948;5.316;2023-11-25T09:05:15;19.73;;;3.92;;
33138;SDS011;19501;50.948;5.316;2023-11-25T09:07:43;19.17;;;4.20;;
33138;SDS011;19501;50.948;5.316;2023-11-25T09:10:09;19.85;;;4.00;;
33138;SDS011;19501;50.948;5.316;2023-11-25T09:12:36;22.58;;;4.55;;
33138;SDS011;19501;50.948;5.316;2023-11-25T09:15:03;23.50;;;3.90;;
33138;SDS011;19501;50.948;5.316;2023-11-25T09:17:31;18.77;;;4.25;;
33138;SDS011;19501;50.948;5.316;2023-11-25T09:20:04;29.05;;;5.07;;
33138;SDS011;19501;50.948;5.316;2023-11-25T09:22:35;24.30;;;5.18;;
33138;SDS011;19501;50.948;5.316;2023-11-25T09:25:02;25.80;;;6.45;;
33138;SDS011;19501;50.948;5.316;2023-11-25T09:27:31;24.88;;;5.68;;
33138;SDS011;19501;50.948;5.316;2023-11-25T09:29:57;24.83;;;6.32;;
33138;SDS011;19501;50.948;5.316;2023-11-25T09:32:23;25.35;;;6.25;;
33138;SDS011;19501;50.948;5.316;2023-11-25T09:34:52;18.02;;;5.28;;
33138;SDS011;19501;50.948;5.316;2023-11-25T09:37:18;25.33;;;5.45;;
33138;SDS011;19501;50.948;5.316;2023-11-25T09:39:44;19.35;;;5.13;;
33138;SDS011;19501;50.948;5.316;2023-11-25T09:42:10;21.02;;;4.82;;
33138;SDS011;19501;50.948;5.316;2023-11-25T09:44:37;24.05;;;5.03;;
33138;SDS011;19501;50.948;5.316;2023-11-25T09:47:04;23.50;;;4.80;;
33138;SDS011;19501;50.948;5.316;2023-11-25T09:49:33;19.77;;;4.60;;
33138;SDS011;19501;50.948;5.316;2023-11-25T09:52:00;19.25;;;4.78;;
33138;SDS011;19501;50.948;5.316;2023-11-25T09:54:30;21.42;;;6.90;;
33138;SDS011;19501;50.948;5.316;2023-11-25T09:56:59;12.65;;;4.25;;
33138;SDS011;19501;50.948;5.316;2023-11-25T09:59:26;19.42;;;4.57;;
33138;SDS011;19501;50.948;5.316;2023-11-25T10:01:53;21.55;;;5.63;;
33138;SDS011;19501;50.948;5.316;2023-11-25T10:04:20;15.65;;;4.78;;
33138;SDS011;19501;50.948;5.316;2023-11-25T10:06:51;17.48;;;4.72;;
33138;SDS011;19501;50.948;5.316;2023-11-25T10:11:46;19.52;;;4.47;;
33138;SDS011;19501;50.948;5.316;2023-11-25T10:14:12;16.63;;;4.72;;
33138;SDS011;19501;50.948;5.316;2023-11-25T10:16:39;19.25;;;4.57;;
33138;SDS011;19501;50.948;5.316;2023-11-25T10:19:21;14.55;;;4.40;;
33138;SDS011;19501;50.948;5.316;2023-11-25T10:21:48;18.20;;;4.90;;
33138;SDS011;19501;50.948;5.316;2023-11-25T10:24:15;15.63;;;3.78;;
33138;SDS011;19501;50.948;5.316;2023-11-25T10:26:46;18.30;;;4.45;;
33138;SDS011;19501;50.948;5.316;2023-11-25T10:29:15;14.60;;;3.60;;
33138;SDS011;19501;50.948;5.316;2023-11-25T10:31:44;14.48;;;3.70;;
33138;SDS011;19501;50.948;5.316;2023-11-25T10:34:16;15.27;;;3.85;;
33138;SDS011;19501;50.948;5.316;2023-11-25T10:36:42;11.75;;;3.30;;
33138;SDS011;19501;50.948;5.316;2023-11-25T10:39:09;12.02;;;2.92;;
33138;SDS011;19501;50.948;5.316;2023-11-25T10:41:36;16.48;;;4.32;;
33138;SDS011;19501;50.948;5.316;2023-11-25T10:44:04;16.55;;;3.70;;
33138;SDS011;19501;50.948;5.316;2023-11-25T10:46:36;8.88;;;2.90;;
33138;SDS011;19501;50.948;5.316;2023-11-25T10:49:04;14.38;;;3.20;;
33138;SDS011;19501;50.948;5.316;2023-11-25T10:51:32;17.85;;;4.05;;
33138;SDS011;19501;50.948;5.316;2023-11-25T10:53:58;20.52;;;3.55;;
33138;SDS011;19501;50.948;5.316;2023-11-25T10:56:25;18.52;;;4.13;;
33138;SDS011;19501;50.948;5.316;2023-11-25T10:58:52;14.55;;;3.30;;
33138;SDS011;19501;50.948;5.316;2023-11-25T11:01:20;17.88;;;3.75;;
33138;SDS011;19501;50.948;5.316;2023-11-25T11:06:47;9.85;;;3.50;;
33138;SDS011;19501;50.948;5.316;2023-11-25T11:09:19;16.40;;;5.93;;
33138;SDS011;19501;50.948;5.316;2023-11-25T11:11:57;17.85;;;4.03;;
33138;SDS011;19501;50.948;5.316;2023-11-25T11:14:30;14.07;;;4.18;;
33138;SDS011;19501;50.948;5.316;2023-11-25T11:17:14;15.60;;;4.03;;
33138;SDS011;19501;50.948;5.316;2023-11-25T11:22:36;19.92;;;3.83;;
33138;SDS011;19501;50.948;5.316;2023-11-25T11:32:52;11.13;;;3.53;;
33138;SDS011;19501;50.948;5.316;2023-11-25T11:35:19;13.18;;;3.03;;
33138;SDS011;19501;50.948;5.316;2023-11-25T11:37:49;13.85;;;3.13;;
33138;SDS011;19501;50.948;5.316;2023-11-25T11:40:19;13.70;;;3.00;;
33138;SDS011;19501;50.948;5.316;2023-11-25T11:42:46;13.75;;;2.95;;
33138;SDS011;19501;50.948;5.316;2023-11-25T11:45:13;18.23;;;2.97;;
33138;SDS011;19501;50.948;5.316;2023-11-25T11:58:21;12.27;;;3.08;;
33138;SDS011;19501;50.948;5.316;2023-11-25T12:03:20;16.63;;;3.00;;
33138;SDS011;19501;50.948;5.316;2023-11-25T12:05:47;15.45;;;2.60;;
33138;SDS011;19501;50.948;5.316;2023-11-25T12:08:13;10.00;;;2.40;;
33138;SDS011;19501;50.948;5.316;2023-11-25T12:10:39;15.50;;;2.85;;
33138;SDS011;19501;50.948;5.316;2023-11-25T12:13:05;13.60;;;2.70;;
33138;SDS011;19501;50.948;5.316;2023-11-25T12:15:31;10.43;;;2.78;;
33138;SDS011;19501;50.948;5.316;2023-11-25T12:17:57;21.75;;;3.13;;
33138;SDS011;19501;50.948;5.316;2023-11-25T12:20:24;9.88;;;2.42;;
33138;SDS011;19501;50.948;5.316;2023-11-25T12:22:52;11.38;;;2.30;;
33138;SDS011;19501;50.948;5.316;2023-11-25T12:25:21;10.43;;;2.20;;
33138;SDS011;19501;50.948;5.316;2023-11-25T12:30:30;11.60;;;2.58;;
33138;SDS011;19501;50.948;5.316;2023-11-25T12:32:56;11.63;;;2.25;;
33138;SDS011;19501;50.948;5.316;2023-11-25T12:35:22;17.20;;;3.20;;
33138;SDS011;19501;50.948;5.316;2023-11-25T12:37:49;13.25;;;2.72;;
33138;SDS011;19501;50.948;5.316;2023-11-25T12:42:49;16.42;;;3.72;;
33138;SDS011;19501;50.948;5.316;2023-11-25T12:48:04;20.65;;;4.57;;
33138;SDS011;19501;50.948;5.316;2023-11-25T12:50:32;16.90;;;3.00;;
33138;SDS011;19501;50.948;5.316;2023-11-25T12:53:08;19.15;;;3.22;;
33138;SDS011;19501;50.948;5.316;2023-11-25T12:55:41;12.43;;;2.55;;
33138;SDS011;19501;50.948;5.316;2023-11-25T12:58:09;10.00;;;2.55;;
33138;SDS011;19501;50.948;5.316;2023-11-25T13:03:22;14.32;;;3.08;;
33138;SDS011;19501;50.948;5.316;2023-11-25T13:08:32;10.85;;;3.22;;
33138;SDS011;19501;50.948;5.316;2023-11-25T13:11:02;18.70;;;2.90;;
33138;SDS011;19501;50.948;5.316;2023-11-25T13:13:31;15.65;;;3.15;;
33138;SDS011;19501;50.948;5.316;2023-11-25T13:15:58;12.32;;;3.67;;
33138;SDS011;19501;50.948;5.316;2023-11-25T13:18:24;12.50;;;2.80;;
33138;SDS011;19501;50.948;5.316;2023-11-25T13:20:52;14.88;;;3.88;;
33138;SDS011;19501;50.948;5.316;2023-11-25T13:23:19;11.27;;;3.30;;
33138;SDS011;19501;50.948;5.316;2023-11-25T13:25:47;12.85;;;2.72;;
33138;SDS011;19501;50.948;5.316;2023-11-25T13:28:14;13.80;;;2.88;;
33138;SDS011;19501;50.948;5.316;2023-11-25T13:30:43;14.18;;;2.80;;
33138;SDS011;19501;50.948;5.316;2023-11-25T13:33:10;13.27;;;2.05;;
33138;SDS011;19501;50.948;5.316;2023-11-25T13:35:38;11.98;;;2.05;;
33138;SDS011;19501;50.948;5.316;2023-11-25T13:38:04;6.68;;;1.85;;
33138;SDS011;19501;50.948;5.316;2023-11-25T13:40:33;11.27;;;3.58;;
33138;SDS011;19501;50.948;5.316;2023-11-25T13:43:00;8.20;;;1.98;;
33138;SDS011;19501;50.948;5.316;2023-11-25T13:45:27;6.38;;;1.85;;
33138;SDS011;19501;50.948;5.316;2023-11-25T13:47:54;7.32;;;1.73;;
33138;SDS011;19501;50.948;5.316;2023-11-25T13:50:21;12.18;;;3.13;;
33138;SDS011;19501;50.948;5.316;2023-11-25T13:52:47;8.63;;;1.60;;
33138;SDS011;19501;50.948;5.316;2023-11-25T13:55:13;9.35;;;2.15;;
33138;SDS011;19501;50.948;5.316;2023-11-25T13:57:43;9.68;;;3.28;;
33138;SDS011;19501;50.948;5.316;2023-11-25T14:00:10;6.35;;;1.77;;
33138;SDS011;19501;50.948;5.316;2023-11-25T14:02:37;3.97;;;1.85;;
33138;SDS011;19501;50.948;5.316;2023-11-25T14:05:02;7.75;;;2.67;;
33138;SDS011;19501;50.948;5.316;2023-11-25T14:07:28;7.28;;;2.67;;
33138;SDS011;19501;50.948;5.316;2023-11-25T14:09:55;8.38;;;2.50;;
33138;SDS011;19501;50.948;5.316;2023-11-25T14:12:20;9.73;;;2.92;;
33138;SDS011;19501;50.948;5.316;2023-11-25T14:14:46;24.95;;;4.22;;
33138;SDS011;19501;50.948;5.316;2023-11-25T14:17:13;14.70;;;3.47;;
33138;SDS011;19501;50.948;5.316;2023-11-25T14:19:44;17.58;;;5.05;;
33138;SDS011;19501;50.948;5.316;2023-11-25T14:22:13;36.93;;;11.93;;
33138;SDS011;19501;50.948;5.316;2023-11-25T14:24:41;27.73;;;9.70;;
33138;SDS011;19501;50.948;5.316;2023-11-25T14:27:07;18.20;;;5.82;;
33138;SDS011;19501;50.948;5.316;2023-11-25T14:29:33;19.67;;;5.93;;
33138;SDS011;19501;50.948;5.316;2023-11-25T14:31:58;16.63;;;4.88;;
33138;SDS011;19501;50.948;5.316;2023-11-25T14:34:27;14.48;;;3.60;;
33138;SDS011;19501;50.948;5.316;2023-11-25T14:36:52;10.98;;;3.03;;
33138;SDS011;19501;50.948;5.316;2023-11-25T14:39:18;16.80;;;3.67;;
33138;SDS011;19501;50.948;5.316;2023-11-25T14:41:47;11.13;;;3.28;;
33138;SDS011;19501;50.948;5.316;2023-11-25T14:44:16;15.95;;;3.50;;
33138;SDS011;19501;50.948;5.316;2023-11-25T14:46:41;18.58;;;7.47;;
33138;SDS011;19501;50.948;5.316;2023-11-25T14:49:07;15.18;;;4.25;;
33138;SDS011;19501;50.948;5.316;2023-11-25T14:51:33;23.10;;;4.22;;
33138;SDS011;19501;50.948;5.316;2023-11-25T14:53:58;13.70;;;3.78;;
33138;SDS011;19501;50.948;5.316;2023-11-25T14:56:24;21.25;;;4.82;;
33138;SDS011;19501;50.948;5.316;2023-11-25T14:58:50;15.38;;;4.50;;
33138;SDS011;19501;50.948;5.316;2023-11-25T15:01:16;17.05;;;4.30;;
33138;SDS011;19501;50.948;5.316;2023-11-25T15:03:42;14.43;;;4.10;;
33138;SDS011;19501;50.948;5.316;2023-11-25T15:06:08;18.75;;;4.32;;
33138;SDS011;19501;50.948;5.316;2023-11-25T15:08:35;17.42;;;4.22;;
33138;SDS011;19501;50.948;5.316;2023-11-25T15:11:05;20.17;;;4.13;;
33138;SDS011;19501;50.948;5.316;2023-11-25T15:13:34;19.40;;;4.72;;
33138;SDS011;19501;50.948;5.316;2023-11-25T15:16:00;24.27;;;4.55;;
33138;SDS011;19501;50.948;5.316;2023-11-25T15:18:26;17.92;;;4.03;;